sensor_id;sensor_type;location;lat;lon;timestamp;P1;durP1;ratioP1;P2;durP2;ratioP2
69126;SDS011;56688;50.234;19.292;2024-03-08T00:00:07;47.00;;;22.80;;
69126;SDS011;56688;50.234;19.292;2024-03-08T00:02:39;51.60;;;23.80;;
69126;SDS011;56688;50.234;19.292;2024-03-08T00:05:06;49.00;;;24.10;;
69126;SDS011;56688;50.234;19.292;2024-03-08T00:07:36;45.70;;;23.30;;
69126;SDS011;56688;50.234;19.292;2024-03-08T00:10:04;48.50;;;22.60;;
69126;SDS011;56688;50.234;19.292;2024-03-08T00:12:32;46.20;;;20.80;;
69126;SDS011;56688;50.234;19.292;2024-03-08T00:14:59;51.60;;;25.40;;
69126;SDS011;56688;50.234;19.292;2024-03-08T00:17:26;55.90;;;25.60;;
69126;SDS011;56688;50.234;19.292;2024-03-08T00:19:54;56.50;;;25.20;;
69126;SDS011;56688;50.234;19.292;2024-03-08T00:22:21;50.60;;;23.10;;
69126;SDS011;56688;50.234;19.292;2024-03-08T00:24:48;43.70;;;21.00;;
69126;SDS011;56688;50.234;19.292;2024-03-08T00:27:17;50.70;;;23.80;;
69126;SDS011;56688;50.234;19.292;2024-03-08T00:29:48;53.40;;;24.00;;
69126;SDS011;56688;50.234;19.292;2024-03-08T00:32:15;51.40;;;24.60;;
69126;SDS011;56688;50.234;19.292;2024-03-08T00:34:43;51.30;;;24.70;;
69126;SDS011;56688;50.234;19.292;2024-03-08T00:37:10;50.50;;;22.60;;
69126;SDS011;56688;50.234;19.292;2024-03-08T00:39:37;48.10;;;23.00;;
69126;SDS011;56688;50.234;19.292;2024-03-08T00:42:04;47.40;;;21.10;;
69126;SDS011;56688;50.234;19.292;2024-03-08T00:44:31;50.40;;;21.70;;
69126;SDS011;56688;50.234;19.292;2024-03-08T00:46:59;41.80;;;21.70;;
69126;SDS011;56688;50.234;19.292;2024-03-08T00:49:25;49.30;;;22.50;;
69126;SDS011;56688;50.234;19.292;2024-03-08T00:51:52;58.50;;;24.10;;
69126;SDS011;56688;50.234;19.292;2024-03-08T00:54:20;59.80;;;23.40;;
69126;SDS011;56688;50.234;19.292;2024-03-08T00:56:46;56.30;;;23.20;;
69126;SDS011;56688;50.234;19.292;2024-03-08T00:59:14;51.70;;;22.00;;
69126;SDS011;56688;50.234;19.292;2024-03-08T01:01:41;48.80;;;21.10;;
69126;SDS011;56688;50.234;19.292;2024-03-08T01:04:08;52.00;;;21.90;;
69126;SDS011;56688;50.234;19.292;2024-03-08T01:06:34;57.00;;;24.30;;
69126;SDS011;56688;50.234;19.292;2024-03-08T01:09:01;51.30;;;22.10;;
69126;SDS011;56688;50.234;19.292;2024-03-08T01:11:29;56.30;;;22.50;;
69126;SDS011;56688;50.234;19.292;2024-03-08T01:13:56;45.90;;;22.00;;
69126;SDS011;56688;50.234;19.292;2024-03-08T01:16:23;51.10;;;22.40;;
69126;SDS011;56688;50.234;19.292;2024-03-08T01:18:49;48.90;;;23.30;;
69126;SDS011;56688;50.234;19.292;2024-03-08T01:21:17;50.00;;;22.10;;
69126;SDS011;56688;50.234;19.292;2024-03-08T01:23:44;51.70;;;21.10;;
69126;SDS011;56688;50.234;19.292;2024-03-08T01:26:11;48.00;;;21.30;;
69126;SDS011;56688;50.234;19.292;2024-03-08T01:28:38;48.10;;;23.30;;
69126;SDS011;56688;50.234;19.292;2024-03-08T01:31:05;50.10;;;21.70;;
69126;SDS011;56688;50.234;19.292;2024-03-08T01:33:32;45.30;;;22.20;;
69126;SDS011;56688;50.234;19.292;2024-03-08T01:36:00;50.50;;;22.40;;
69126;SDS011;56688;50.234;19.292;2024-03-08T01:38:27;49.20;;;21.60;;
69126;SDS011;56688;50.234;19.292;2024-03-08T01:40:53;48.30;;;21.20;;
69126;SDS011;56688;50.234;19.292;2024-03-08T01:43:21;43.40;;;21.70;;
69126;SDS011;56688;50.234;19.292;2024-03-08T01:45:51;48.10;;;21.10;;
69126;SDS011;56688;50.234;19.292;2024-03-08T01:48:18;55.70;;;23.10;;
69126;SDS011;56688;50.234;19.292;2024-03-08T01:50:49;54.30;;;22.50;;
69126;SDS011;56688;50.234;19.292;2024-03-08T01:53:17;50.10;;;22.40;;
69126;SDS011;56688;50.234;19.292;2024-03-08T01:55:45;45.40;;;21.90;;
69126;SDS011;56688;50.234;19.292;2024-03-08T01:58:14;44.90;;;21.70;;
69126;SDS011;56688;50.234;19.292;2024-03-08T02:00:43;51.20;;;21.40;;
69126;SDS011;56688;50.234;19.292;2024-03-08T02:03:13;44.40;;;20.00;;
69126;SDS011;56688;50.234;19.292;2024-03-08T02:05:40;50.50;;;20.00;;
69126;SDS011;56688;50.234;19.292;2024-03-08T02:08:07;47.30;;;21.70;;
69126;SDS011;56688;50.234;19.292;2024-03-08T02:10:39;47.90;;;20.00;;
69126;SDS011;56688;50.234;19.292;2024-03-08T02:13:06;45.70;;;20.40;;
69126;SDS011;56688;50.234;19.292;2024-03-08T02:18:22;58.00;;;23.20;;
69126;SDS011;56688;50.234;19.292;2024-03-08T02:20:51;57.70;;;24.30;;
69126;SDS011;56688;50.234;19.292;2024-03-08T02:23:20;47.20;;;22.10;;
69126;SDS011;56688;50.234;19.292;2024-03-08T02:25:47;46.60;;;20.90;;
69126;SDS011;56688;50.234;19.292;2024-03-08T02:28:15;57.70;;;21.90;;
69126;SDS011;56688;50.234;19.292;2024-03-08T02:30:42;54.30;;;22.60;;
69126;SDS011;56688;50.234;19.292;2024-03-08T02:33:09;46.60;;;21.30;;
69126;SDS011;56688;50.234;19.292;2024-03-08T02:35:36;46.70;;;22.00;;
69126;SDS011;56688;50.234;19.292;2024-03-08T02:38:03;52.60;;;22.20;;
69126;SDS011;56688;50.234;19.292;2024-03-08T02:40:30;54.90;;;21.10;;
69126;SDS011;56688;50.234;19.292;2024-03-08T02:42:57;40.90;;;20.30;;
69126;SDS011;56688;50.234;19.292;2024-03-08T02:45:24;43.00;;;21.00;;
69126;SDS011;56688;50.234;19.292;2024-03-08T02:47:51;44.40;;;21.80;;
69126;SDS011;56688;50.234;19.292;2024-03-08T02:50:18;51.60;;;21.30;;
69126;SDS011;56688;50.234;19.292;2024-03-08T02:52:45;46.40;;;20.60;;
69126;SDS011;56688;50.234;19.292;2024-03-08T02:55:13;41.50;;;20.10;;
69126;SDS011;56688;50.234;19.292;2024-03-08T02:57:43;41.20;;;18.80;;
69126;SDS011;56688;50.234;19.292;2024-03-08T03:00:10;43.30;;;20.30;;
69126;SDS011;56688;50.234;19.292;2024-03-08T03:02:37;41.30;;;19.20;;
69126;SDS011;56688;50.234;19.292;2024-03-08T03:05:05;45.40;;;20.80;;
69126;SDS011;56688;50.234;19.292;2024-03-08T03:07:32;51.50;;;21.20;;
69126;SDS011;56688;50.234;19.292;2024-03-08T03:10:00;44.40;;;21.00;;
69126;SDS011;56688;50.234;19.292;2024-03-08T03:12:27;52.90;;;22.20;;
69126;SDS011;56688;50.234;19.292;2024-03-08T03:14:55;40.70;;;20.40;;
69126;SDS011;56688;50.234;19.292;2024-03-08T03:17:23;41.60;;;19.70;;
69126;SDS011;56688;50.234;19.292;2024-03-08T03:19:51;43.10;;;20.50;;
69126;SDS011;56688;50.234;19.292;2024-03-08T03:22:19;42.90;;;19.20;;
69126;SDS011;56688;50.234;19.292;2024-03-08T03:24:46;40.00;;;19.30;;
69126;SDS011;56688;50.234;19.292;2024-03-08T03:27:13;44.10;;;20.00;;
69126;SDS011;56688;50.234;19.292;2024-03-08T03:29:42;38.10;;;18.60;;
69126;SDS011;56688;50.234;19.292;2024-03-08T03:32:12;43.10;;;20.90;;
69126;SDS011;56688;50.234;19.292;2024-03-08T03:34:40;41.80;;;18.80;;
69126;SDS011;56688;50.234;19.292;2024-03-08T03:37:07;37.20;;;19.40;;
69126;SDS011;56688;50.234;19.292;2024-03-08T03:39:39;33.00;;;17.70;;
69126;SDS011;56688;50.234;19.292;2024-03-08T03:42:16;34.50;;;17.30;;
69126;SDS011;56688;50.234;19.292;2024-03-08T03:44:45;35.00;;;18.20;;
69126;SDS011;56688;50.234;19.292;2024-03-08T03:47:14;33.80;;;17.20;;
69126;SDS011;56688;50.234;19.292;2024-03-08T03:49:42;30.00;;;15.80;;
69126;SDS011;56688;50.234;19.292;2024-03-08T03:52:09;32.20;;;15.30;;
69126;SDS011;56688;50.234;19.292;2024-03-08T03:54:37;35.40;;;17.20;;
69126;SDS011;56688;50.234;19.292;2024-03-08T03:57:03;31.70;;;16.60;;
69126;SDS011;56688;50.234;19.292;2024-03-08T03:59:31;31.70;;;16.60;;
69126;SDS011;56688;50.234;19.292;2024-03-08T04:01:58;31.20;;;16.40;;
69126;SDS011;56688;50.234;19.292;2024-03-08T04:04:25;30.20;;;15.50;;
69126;SDS011;56688;50.234;19.292;2024-03-08T04:06:52;30.70;;;15.00;;
69126;SDS011;56688;50.234;19.292;2024-03-08T04:09:18;29.80;;;15.60;;
69126;SDS011;56688;50.234;19.292;2024-03-08T04:11:45;30.40;;;16.00;;
69126;SDS011;56688;50.234;19.292;2024-03-08T04:14:12;29.90;;;15.30;;
69126;SDS011;56688;50.234;19.292;2024-03-08T04:16:40;30.40;;;15.30;;
69126;SDS011;56688;50.234;19.292;2024-03-08T04:19:06;29.30;;;15.20;;
69126;SDS011;56688;50.234;19.292;2024-03-08T04:21:35;30.80;;;15.40;;
69126;SDS011;56688;50.234;19.292;2024-03-08T04:24:01;26.30;;;14.40;;
69126;SDS011;56688;50.234;19.292;2024-03-08T04:26:28;28.70;;;13.80;;
69126;SDS011;56688;50.234;19.292;2024-03-08T04:28:56;27.80;;;15.90;;
69126;SDS011;56688;50.234;19.292;2024-03-08T04:31:22;28.40;;;15.40;;
69126;SDS011;56688;50.234;19.292;2024-03-08T04:33:49;31.60;;;16.00;;
69126;SDS011;56688;50.234;19.292;2024-03-08T04:36:16;29.00;;;15.50;;
69126;SDS011;56688;50.234;19.292;2024-03-08T04:38:43;29.30;;;14.70;;
69126;SDS011;56688;50.234;19.292;2024-03-08T04:41:10;32.50;;;16.50;;
69126;SDS011;56688;50.234;19.292;2024-03-08T04:43:38;32.40;;;15.60;;
69126;SDS011;56688;50.234;19.292;2024-03-08T04:46:05;29.20;;;15.00;;
69126;SDS011;56688;50.234;19.292;2024-03-08T04:48:32;29.10;;;15.20;;
69126;SDS011;56688;50.234;19.292;2024-03-08T04:50:59;29.80;;;14.80;;
69126;SDS011;56688;50.234;19.292;2024-03-08T04:53:26;24.30;;;14.50;;
69126;SDS011;56688;50.234;19.292;2024-03-08T04:55:53;23.00;;;12.70;;
69126;SDS011;56688;50.234;19.292;2024-03-08T04:58:21;25.10;;;14.10;;
69126;SDS011;56688;50.234;19.292;2024-03-08T05:00:48;15.80;;;10.00;;
69126;SDS011;56688;50.234;19.292;2024-03-08T05:03:15;23.40;;;13.80;;
69126;SDS011;56688;50.234;19.292;2024-03-08T05:05:42;24.00;;;13.30;;
69126;SDS011;56688;50.234;19.292;2024-03-08T05:08:08;27.50;;;13.50;;
69126;SDS011;56688;50.234;19.292;2024-03-08T05:10:35;26.40;;;14.60;;
69126;SDS011;56688;50.234;19.292;2024-03-08T05:13:02;21.60;;;14.40;;
69126;SDS011;56688;50.234;19.292;2024-03-08T05:15:29;28.20;;;15.20;;
69126;SDS011;56688;50.234;19.292;2024-03-08T05:17:56;24.70;;;14.90;;
69126;SDS011;56688;50.234;19.292;2024-03-08T05:20:24;23.90;;;14.10;;
69126;SDS011;56688;50.234;19.292;2024-03-08T05:22:52;26.20;;;14.30;;
69126;SDS011;56688;50.234;19.292;2024-03-08T05:25:19;20.60;;;12.60;;
69126;SDS011;56688;50.234;19.292;2024-03-08T05:27:46;23.30;;;13.50;;
69126;SDS011;56688;50.234;19.292;2024-03-08T05:30:14;21.90;;;13.10;;
69126;SDS011;56688;50.234;19.292;2024-03-08T05:32:42;19.60;;;11.70;;
69126;SDS011;56688;50.234;19.292;2024-03-08T05:35:11;20.50;;;12.60;;
69126;SDS011;56688;50.234;19.292;2024-03-08T05:37:39;24.70;;;12.30;;
69126;SDS011;56688;50.234;19.292;2024-03-08T05:40:06;19.80;;;12.30;;
69126;SDS011;56688;50.234;19.292;2024-03-08T05:42:42;23.50;;;12.80;;
69126;SDS011;56688;50.234;19.292;2024-03-08T05:45:09;22.60;;;12.40;;
69126;SDS011;56688;50.234;19.292;2024-03-08T05:47:38;22.40;;;12.00;;
69126;SDS011;56688;50.234;19.292;2024-03-08T05:50:06;21.50;;;12.20;;
69126;SDS011;56688;50.234;19.292;2024-03-08T05:52:37;22.30;;;12.40;;
69126;SDS011;56688;50.234;19.292;2024-03-08T05:55:05;21.00;;;11.70;;
69126;SDS011;56688;50.234;19.292;2024-03-08T05:57:34;22.10;;;12.20;;
69126;SDS011;56688;50.234;19.292;2024-03-08T06:00:04;22.00;;;12.40;;
69126;SDS011;56688;50.234;19.292;2024-03-08T06:02:38;22.80;;;12.60;;
69126;SDS011;56688;50.234;19.292;2024-03-08T06:05:10;19.50;;;11.50;;
69126;SDS011;56688;50.234;19.292;2024-03-08T06:07:37;23.40;;;12.80;;
69126;SDS011;56688;50.234;19.292;2024-03-08T06:10:09;18.20;;;11.20;;
69126;SDS011;56688;50.234;19.292;2024-03-08T06:12:37;19.60;;;12.40;;
69126;SDS011;56688;50.234;19.292;2024-03-08T06:15:09;17.20;;;11.50;;
69126;SDS011;56688;50.234;19.292;2024-03-08T06:17:36;23.20;;;11.90;;
69126;SDS011;56688;50.234;19.292;2024-03-08T06:20:03;26.00;;;13.30;;
69126;SDS011;56688;50.234;19.292;2024-03-08T06:22:37;20.60;;;13.60;;
69126;SDS011;56688;50.234;19.292;2024-03-08T06:25:07;20.00;;;11.80;;
69126;SDS011;56688;50.234;19.292;2024-03-08T06:27:35;25.30;;;13.50;;
69126;SDS011;56688;50.234;19.292;2024-03-08T06:30:02;22.50;;;13.00;;
69126;SDS011;56688;50.234;19.292;2024-03-08T06:32:31;23.10;;;13.10;;
69126;SDS011;56688;50.234;19.292;2024-03-08T06:35:03;23.80;;;11.40;;
69126;SDS011;56688;50.234;19.292;2024-03-08T06:37:33;21.80;;;12.20;;
69126;SDS011;56688;50.234;19.292;2024-03-08T06:40:00;20.20;;;12.10;;
69126;SDS011;56688;50.234;19.292;2024-03-08T06:45:19;17.90;;;11.40;;
69126;SDS011;56688;50.234;19.292;2024-03-08T06:47:47;22.80;;;13.50;;
69126;SDS011;56688;50.234;19.292;2024-03-08T06:50:15;14.60;;;9.50;;
69126;SDS011;56688;50.234;19.292;2024-03-08T06:52:43;21.10;;;12.40;;
69126;SDS011;56688;50.234;19.292;2024-03-08T06:55:11;21.40;;;12.40;;
69126;SDS011;56688;50.234;19.292;2024-03-08T06:57:39;20.30;;;11.50;;
69126;SDS011;56688;50.234;19.292;2024-03-08T07:00:08;24.10;;;13.30;;
69126;SDS011;56688;50.234;19.292;2024-03-08T07:02:36;24.20;;;13.20;;
69126;SDS011;56688;50.234;19.292;2024-03-08T07:05:06;23.40;;;12.90;;
69126;SDS011;56688;50.234;19.292;2024-03-08T07:07:37;22.80;;;13.50;;
69126;SDS011;56688;50.234;19.292;2024-03-08T07:10:04;23.40;;;13.60;;
69126;SDS011;56688;50.234;19.292;2024-03-08T07:12:31;18.30;;;12.00;;
69126;SDS011;56688;50.234;19.292;2024-03-08T07:14:59;20.40;;;13.30;;
69126;SDS011;56688;50.234;19.292;2024-03-08T07:17:26;17.10;;;10.60;;
69126;SDS011;56688;50.234;19.292;2024-03-08T07:19:52;28.30;;;13.80;;
69126;SDS011;56688;50.234;19.292;2024-03-08T07:22:25;21.80;;;12.00;;
69126;SDS011;56688;50.234;19.292;2024-03-08T07:24:52;18.70;;;10.70;;
69126;SDS011;56688;50.234;19.292;2024-03-08T07:27:37;18.50;;;12.10;;
69126;SDS011;56688;50.234;19.292;2024-03-08T07:30:04;22.60;;;11.70;;
69126;SDS011;56688;50.234;19.292;2024-03-08T07:32:37;22.10;;;13.70;;
69126;SDS011;56688;50.234;19.292;2024-03-08T07:35:04;22.80;;;12.90;;
69126;SDS011;56688;50.234;19.292;2024-03-08T07:37:32;21.40;;;12.80;;
69126;SDS011;56688;50.234;19.292;2024-03-08T07:39:59;20.10;;;12.90;;
69126;SDS011;56688;50.234;19.292;2024-03-08T07:42:26;21.30;;;12.80;;
69126;SDS011;56688;50.234;19.292;2024-03-08T07:44:55;23.00;;;13.00;;
69126;SDS011;56688;50.234;19.292;2024-03-08T07:47:22;22.50;;;13.50;;
69126;SDS011;56688;50.234;19.292;2024-03-08T07:49:51;20.20;;;11.40;;
69126;SDS011;56688;50.234;19.292;2024-03-08T07:52:18;25.10;;;12.90;;
69126;SDS011;56688;50.234;19.292;2024-03-08T07:54:44;20.70;;;12.80;;
69126;SDS011;56688;50.234;19.292;2024-03-08T07:57:12;20.90;;;12.70;;
69126;SDS011;56688;50.234;19.292;2024-03-08T07:59:39;21.60;;;12.90;;
69126;SDS011;56688;50.234;19.292;2024-03-08T08:02:06;22.30;;;12.50;;
69126;SDS011;56688;50.234;19.292;2024-03-08T08:04:33;26.00;;;14.90;;
69126;SDS011;56688;50.234;19.292;2024-03-08T08:07:00;26.00;;;14.00;;
69126;SDS011;56688;50.234;19.292;2024-03-08T08:09:28;18.50;;;11.90;;
69126;SDS011;56688;50.234;19.292;2024-03-08T08:11:55;19.30;;;11.90;;
69126;SDS011;56688;50.234;19.292;2024-03-08T08:14:22;21.30;;;12.70;;
69126;SDS011;56688;50.234;19.292;2024-03-08T08:16:49;21.10;;;12.20;;
69126;SDS011;56688;50.234;19.292;2024-03-08T08:19:20;20.10;;;12.00;;
69126;SDS011;56688;50.234;19.292;2024-03-08T08:21:47;19.50;;;11.40;;
69126;SDS011;56688;50.234;19.292;2024-03-08T08:24:14;22.40;;;13.30;;
69126;SDS011;56688;50.234;19.292;2024-03-08T08:26:41;22.10;;;14.00;;
69126;SDS011;56688;50.234;19.292;2024-03-08T08:29:11;25.70;;;14.10;;
69126;SDS011;56688;50.234;19.292;2024-03-08T08:31:38;22.60;;;13.20;;
69126;SDS011;56688;50.234;19.292;2024-03-08T08:34:05;21.10;;;13.30;;
69126;SDS011;56688;50.234;19.292;2024-03-08T08:36:32;21.20;;;13.10;;
69126;SDS011;56688;50.234;19.292;2024-03-08T08:39:00;22.30;;;13.30;;
69126;SDS011;56688;50.234;19.292;2024-03-08T08:41:30;21.90;;;12.70;;
69126;SDS011;56688;50.234;19.292;2024-03-08T08:43:57;18.40;;;11.40;;
69126;SDS011;56688;50.234;19.292;2024-03-08T08:46:40;19.80;;;12.00;;
69126;SDS011;56688;50.234;19.292;2024-03-08T08:49:08;22.10;;;12.70;;
69126;SDS011;56688;50.234;19.292;2024-03-08T08:51:37;22.00;;;13.40;;
69126;SDS011;56688;50.234;19.292;2024-03-08T08:54:05;21.50;;;12.80;;
69126;SDS011;56688;50.234;19.292;2024-03-08T08:56:37;20.80;;;11.80;;
69126;SDS011;56688;50.234;19.292;2024-03-08T08:59:04;17.10;;;9.50;;
69126;SDS011;56688;50.234;19.292;2024-03-08T09:01:31;19.30;;;11.20;;
69126;SDS011;56688;50.234;19.292;2024-03-08T09:04:00;21.60;;;12.60;;
69126;SDS011;56688;50.234;19.292;2024-03-08T09:06:26;22.00;;;12.80;;
69126;SDS011;56688;50.234;19.292;2024-03-08T09:08:53;22.00;;;13.50;;
69126;SDS011;56688;50.234;19.292;2024-03-08T09:11:20;20.20;;;12.20;;
69126;SDS011;56688;50.234;19.292;2024-03-08T09:13:47;21.80;;;13.00;;
69126;SDS011;56688;50.234;19.292;2024-03-08T09:16:15;22.60;;;13.40;;
69126;SDS011;56688;50.234;19.292;2024-03-08T09:18:42;20.70;;;12.90;;
69126;SDS011;56688;50.234;19.292;2024-03-08T09:21:09;21.10;;;12.80;;
69126;SDS011;56688;50.234;19.292;2024-03-08T09:23:36;21.10;;;12.10;;
69126;SDS011;56688;50.234;19.292;2024-03-08T09:26:03;21.40;;;12.70;;
69126;SDS011;56688;50.234;19.292;2024-03-08T09:28:36;20.70;;;12.10;;
69126;SDS011;56688;50.234;19.292;2024-03-08T09:31:03;18.80;;;13.00;;
69126;SDS011;56688;50.234;19.292;2024-03-08T09:33:30;17.10;;;12.00;;
69126;SDS011;56688;50.234;19.292;2024-03-08T09:36:01;20.00;;;13.00;;
69126;SDS011;56688;50.234;19.292;2024-03-08T09:38:30;21.20;;;13.40;;
69126;SDS011;56688;50.234;19.292;2024-03-08T09:40:57;18.20;;;12.90;;
69126;SDS011;56688;50.234;19.292;2024-03-08T09:43:24;16.90;;;12.40;;
69126;SDS011;56688;50.234;19.292;2024-03-08T09:45:51;25.00;;;13.80;;
69126;SDS011;56688;50.234;19.292;2024-03-08T09:48:19;20.50;;;14.30;;
69126;SDS011;56688;50.234;19.292;2024-03-08T09:50:46;22.90;;;13.90;;
69126;SDS011;56688;50.234;19.292;2024-03-08T09:53:14;20.30;;;13.90;;
69126;SDS011;56688;50.234;19.292;2024-03-08T09:55:43;19.90;;;13.70;;
69126;SDS011;56688;50.234;19.292;2024-03-08T09:58:12;20.40;;;13.60;;
69126;SDS011;56688;50.234;19.292;2024-03-08T10:00:59;21.90;;;13.80;;
69126;SDS011;56688;50.234;19.292;2024-03-08T10:03:28;21.60;;;13.40;;
69126;SDS011;56688;50.234;19.292;2024-03-08T10:05:56;18.90;;;12.90;;
69126;SDS011;56688;50.234;19.292;2024-03-08T10:08:27;19.70;;;12.70;;
69126;SDS011;56688;50.234;19.292;2024-03-08T10:10:56;20.00;;;12.60;;
69126;SDS011;56688;50.234;19.292;2024-03-08T10:13:25;19.40;;;13.60;;
69126;SDS011;56688;50.234;19.292;2024-03-08T10:15:54;19.70;;;13.50;;
69126;SDS011;56688;50.234;19.292;2024-03-08T10:18:21;19.90;;;12.90;;
69126;SDS011;56688;50.234;19.292;2024-03-08T10:23:37;20.20;;;13.50;;
69126;SDS011;56688;50.234;19.292;2024-03-08T10:28:42;20.40;;;13.60;;
69126;SDS011;56688;50.234;19.292;2024-03-08T10:31:11;20.00;;;13.60;;
69126;SDS011;56688;50.234;19.292;2024-03-08T10:33:40;17.40;;;12.50;;
69126;SDS011;56688;50.234;19.292;2024-03-08T10:36:08;23.60;;;14.40;;
69126;SDS011;56688;50.234;19.292;2024-03-08T10:38:36;20.70;;;13.90;;
69126;SDS011;56688;50.234;19.292;2024-03-08T10:41:05;22.20;;;13.20;;
69126;SDS011;56688;50.234;19.292;2024-03-08T10:43:38;20.70;;;13.90;;
69126;SDS011;56688;50.234;19.292;2024-03-08T10:46:18;20.40;;;13.50;;
69126;SDS011;56688;50.234;19.292;2024-03-08T10:48:49;22.30;;;13.80;;
69126;SDS011;56688;50.234;19.292;2024-03-08T10:51:19;18.40;;;12.90;;
69126;SDS011;56688;50.234;19.292;2024-03-08T10:53:46;19.50;;;13.30;;
69126;SDS011;56688;50.234;19.292;2024-03-08T10:56:15;21.90;;;12.80;;
69126;SDS011;56688;50.234;19.292;2024-03-08T10:58:42;24.00;;;14.40;;
69126;SDS011;56688;50.234;19.292;2024-03-08T11:01:11;18.90;;;12.80;;
69126;SDS011;56688;50.234;19.292;2024-03-08T11:06:08;22.20;;;14.20;;
69126;SDS011;56688;50.234;19.292;2024-03-08T11:08:37;23.30;;;14.90;;
69126;SDS011;56688;50.234;19.292;2024-03-08T11:11:05;20.90;;;14.90;;
69126;SDS011;56688;50.234;19.292;2024-03-08T11:16:02;21.20;;;14.20;;
69126;SDS011;56688;50.234;19.292;2024-03-08T11:18:36;26.90;;;16.30;;
69126;SDS011;56688;50.234;19.292;2024-03-08T11:21:05;24.50;;;15.50;;
69126;SDS011;56688;50.234;19.292;2024-03-08T11:23:40;26.90;;;16.40;;
69126;SDS011;56688;50.234;19.292;2024-03-08T11:26:19;27.80;;;18.00;;
69126;SDS011;56688;50.234;19.292;2024-03-08T11:28:46;26.90;;;16.90;;
69126;SDS011;56688;50.234;19.292;2024-03-08T11:33:49;27.20;;;17.10;;
69126;SDS011;56688;50.234;19.292;2024-03-08T11:36:21;27.40;;;18.40;;
69126;SDS011;56688;50.234;19.292;2024-03-08T11:38:50;26.60;;;17.40;;
69126;SDS011;56688;50.234;19.292;2024-03-08T11:41:20;27.70;;;18.00;;
69126;SDS011;56688;50.234;19.292;2024-03-08T11:43:49;26.30;;;17.20;;
69126;SDS011;56688;50.234;19.292;2024-03-08T11:46:17;26.70;;;18.70;;
69126;SDS011;56688;50.234;19.292;2024-03-08T11:48:47;28.30;;;17.50;;
69126;SDS011;56688;50.234;19.292;2024-03-08T11:51:15;27.70;;;17.90;;
69126;SDS011;56688;50.234;19.292;2024-03-08T11:53:45;28.90;;;19.20;;
69126;SDS011;56688;50.234;19.292;2024-03-08T11:56:15;26.70;;;17.20;;
69126;SDS011;56688;50.234;19.292;2024-03-08T11:58:53;29.40;;;17.20;;
69126;SDS011;56688;50.234;19.292;2024-03-08T12:01:24;26.50;;;17.20;;
69126;SDS011;56688;50.234;19.292;2024-03-08T12:03:53;27.00;;;17.20;;
69126;SDS011;56688;50.234;19.292;2024-03-08T12:06:21;30.40;;;17.70;;
69126;SDS011;56688;50.234;19.292;2024-03-08T12:08:48;25.50;;;16.60;;
69126;SDS011;56688;50.234;19.292;2024-03-08T12:11:16;25.90;;;16.30;;
69126;SDS011;56688;50.234;19.292;2024-03-08T12:13:45;30.90;;;18.40;;
69126;SDS011;56688;50.234;19.292;2024-03-08T12:16:13;31.50;;;19.30;;
69126;SDS011;56688;50.234;19.292;2024-03-08T12:18:40;30.30;;;18.30;;
69126;SDS011;56688;50.234;19.292;2024-03-08T12:21:08;28.40;;;18.50;;
69126;SDS011;56688;50.234;19.292;2024-03-08T12:23:38;27.00;;;17.70;;
69126;SDS011;56688;50.234;19.292;2024-03-08T12:26:09;25.50;;;16.50;;
69126;SDS011;56688;50.234;19.292;2024-03-08T12:28:40;27.50;;;17.30;;
69126;SDS011;56688;50.234;19.292;2024-03-08T12:31:11;23.80;;;16.40;;
69126;SDS011;56688;50.234;19.292;2024-03-08T12:33:50;27.10;;;17.30;;
69126;SDS011;56688;50.234;19.292;2024-03-08T12:36:23;24.80;;;16.20;;
69126;SDS011;56688;50.234;19.292;2024-03-08T12:38:50;27.50;;;17.10;;
69126;SDS011;56688;50.234;19.292;2024-03-08T12:41:21;21.50;;;15.50;;
69126;SDS011;56688;50.234;19.292;2024-03-08T12:43:48;22.80;;;15.20;;
69126;SDS011;56688;50.234;19.292;2024-03-08T12:46:15;23.90;;;15.50;;
69126;SDS011;56688;50.234;19.292;2024-03-08T12:48:43;21.90;;;15.80;;
69126;SDS011;56688;50.234;19.292;2024-03-08T12:51:14;24.80;;;15.70;;
69126;SDS011;56688;50.234;19.292;2024-03-08T12:53:42;22.40;;;15.50;;
69126;SDS011;56688;50.234;19.292;2024-03-08T12:56:13;26.50;;;16.60;;
69126;SDS011;56688;50.234;19.292;2024-03-08T12:58:44;23.10;;;15.60;;
69126;SDS011;56688;50.234;19.292;2024-03-08T13:01:11;21.80;;;14.10;;
69126;SDS011;56688;50.234;19.292;2024-03-08T13:03:38;23.40;;;15.00;;
69126;SDS011;56688;50.234;19.292;2024-03-08T13:06:06;22.00;;;14.70;;
69126;SDS011;56688;50.234;19.292;2024-03-08T13:08:35;25.50;;;15.30;;
69126;SDS011;56688;50.234;19.292;2024-03-08T13:11:04;22.30;;;15.00;;
69126;SDS011;56688;50.234;19.292;2024-03-08T13:13:32;19.60;;;14.00;;
69126;SDS011;56688;50.234;19.292;2024-03-08T13:16:02;19.60;;;14.60;;
69126;SDS011;56688;50.234;19.292;2024-03-08T13:18:30;20.80;;;15.10;;
69126;SDS011;56688;50.234;19.292;2024-03-08T13:20:57;16.50;;;12.60;;
69126;SDS011;56688;50.234;19.292;2024-03-08T13:23:24;19.10;;;14.10;;
69126;SDS011;56688;50.234;19.292;2024-03-08T13:25:51;18.10;;;13.20;;
69126;SDS011;56688;50.234;19.292;2024-03-08T13:28:18;19.00;;;14.20;;
69126;SDS011;56688;50.234;19.292;2024-03-08T13:30:50;17.50;;;14.10;;
69126;SDS011;56688;50.234;19.292;2024-03-08T13:33:23;19.00;;;14.10;;
69126;SDS011;56688;50.234;19.292;2024-03-08T13:35:50;19.20;;;13.20;;
69126;SDS011;56688;50.234;19.292;2024-03-08T13:38:17;18.30;;;13.40;;
69126;SDS011;56688;50.234;19.292;2024-03-08T13:40:46;17.50;;;12.80;;
69126;SDS011;56688;50.234;19.292;2024-03-08T13:43:15;18.80;;;14.50;;
69126;SDS011;56688;50.234;19.292;2024-03-08T13:45:42;19.60;;;13.10;;
69126;SDS011;56688;50.234;19.292;2024-03-08T13:48:10;18.00;;;13.20;;
69126;SDS011;56688;50.234;19.292;2024-03-08T13:50:39;20.00;;;13.40;;
69126;SDS011;56688;50.234;19.292;2024-03-08T13:53:06;22.80;;;16.60;;
69126;SDS011;56688;50.234;19.292;2024-03-08T13:55:34;17.80;;;13.90;;
69126;SDS011;56688;50.234;19.292;2024-03-08T13:58:01;16.70;;;12.70;;
69126;SDS011;56688;50.234;19.292;2024-03-08T14:00:29;21.80;;;13.70;;
69126;SDS011;56688;50.234;19.292;2024-03-08T14:03:00;16.00;;;12.80;;
69126;SDS011;56688;50.234;19.292;2024-03-08T14:05:27;18.70;;;13.90;;
69126;SDS011;56688;50.234;19.292;2024-03-08T14:07:54;24.60;;;18.10;;
69126;SDS011;56688;50.234;19.292;2024-03-08T14:10:22;18.80;;;13.50;;
69126;SDS011;56688;50.234;19.292;2024-03-08T14:12:50;16.50;;;12.10;;
69126;SDS011;56688;50.234;19.292;2024-03-08T14:15:17;18.00;;;13.50;;
69126;SDS011;56688;50.234;19.292;2024-03-08T14:17:45;16.90;;;12.40;;
69126;SDS011;56688;50.234;19.292;2024-03-08T14:20:14;17.40;;;12.70;;
69126;SDS011;56688;50.234;19.292;2024-03-08T14:22:41;21.20;;;14.10;;
69126;SDS011;56688;50.234;19.292;2024-03-08T14:25:08;26.30;;;16.70;;
69126;SDS011;56688;50.234;19.292;2024-03-08T14:27:45;19.60;;;14.00;;
69126;SDS011;56688;50.234;19.292;2024-03-08T14:30:13;17.90;;;13.90;;
69126;SDS011;56688;50.234;19.292;2024-03-08T14:32:54;17.50;;;13.00;;